»·PEaware :: UAL39 KPDX-KSFO

UAL39 :: KPDX-KSFO

FLIGHT INFORMATION

Flight Status: Arrived
Operator:
United Airlines
More flights by this operator :: More flights under this callsign
Pilot: Anonymous 12234 (12234)
Aircraft: BOEING 737-300
(B733)
More flights by this aircraft type
Origin: KPDX Portland Intl
United States
Destination: KSFO San Francisco Intl
United States
More flights between these airports :: More routes between these airports
Route: MINNE5 FAMUK Q3 FOWND MLBEC BDEGA2
File this flight plan on PilotEdge
Remarks:
Altitude:
(Current/Filed)
35,000ft
Speed:
(Current/Filed)
427kts
Departed: 16-Dec-17 08:21 PM
Arrived: 16-Dec-17 09:42 PM
Distance/Time
Traveled:
478nm/1:20
Distance/Time
To Go:
Arrived

Flight Plot

Page will automatically refresh every two minutes.


Map Options




Map Legend


Flown Route
Filed Route
Departure Airport
Arrival Airport
Navaid (VOR, NDB)
Fix

Horizontal Profiles

Position Reports

Time Latitude Longitude Heading Altitude Ground
Speed
16-Dec-17 19:55 45.589844 -122.590572 225 36ft 0kts
16-Dec-17 19:56 45.589844 -122.590572 225 36ft 0kts
16-Dec-17 19:57 45.589844 -122.590572 225 36ft 0kts
16-Dec-17 19:58 45.589844 -122.590572 225 36ft 0kts
16-Dec-17 19:59 45.589844 -122.590572 225 36ft 0kts
16-Dec-17 20:00 45.589844 -122.590572 225 36ft 0kts
16-Dec-17 20:01 45.589844 -122.590572 225 36ft 0kts
16-Dec-17 20:02 45.589844 -122.590572 225 36ft 0kts
16-Dec-17 20:03 45.589844 -122.590572 225 36ft 0kts
16-Dec-17 20:04 45.589844 -122.590572 225 36ft 0kts
16-Dec-17 20:05 45.589844 -122.590572 225 36ft 0kts
16-Dec-17 20:06 45.589844 -122.590572 225 36ft 0kts
16-Dec-17 20:07 45.589844 -122.590572 225 36ft 0kts
16-Dec-17 20:08 45.589844 -122.590572 225 36ft 0kts
16-Dec-17 20:09 45.589844 -122.590572 225 36ft 0kts
16-Dec-17 20:10 45.589844 -122.590572 225 36ft 0kts
16-Dec-17 20:11 45.589844 -122.590572 225 36ft 0kts
16-Dec-17 20:12 45.589844 -122.590572 225 36ft 0kts
16-Dec-17 20:13 45.589844 -122.590572 225 36ft 0kts
16-Dec-17 20:14 45.589845 -122.590572 225 36ft 0kts
16-Dec-17 20:15 45.589844 -122.590572 225 36ft 0kts
16-Dec-17 20:16 45.589907 -122.590482 220 36ft 2kts
16-Dec-17 20:17 45.590385 -122.589989 245 36ft 2kts
16-Dec-17 20:18 45.590347 -122.589547 301 36ft 0kts
16-Dec-17 20:19 45.590347 -122.589547 300 36ft 0kts
16-Dec-17 20:20 45.590347 -122.589547 301 36ft 0kts
16-Dec-17 20:21 45.590347 -122.589547 301 36ft 0kts
16-Dec-17 20:22 45.590347 -122.589547 301 36ft 0kts
16-Dec-17 20:23 45.590350 -122.589554 301 36ft 0kts
16-Dec-17 20:24 45.591360 -122.592162 298 36ft 16kts
16-Dec-17 20:25 45.593851 -122.598002 356 36ft 9kts
16-Dec-17 20:26 45.594945 -122.596008 114 36ft 0kts
16-Dec-17 20:27 45.592766 -122.590390 118 36ft 91kts
16-Dec-17 20:28 45.576638 -122.537526 100 1232ft 165kts
16-Dec-17 20:29 45.565316 -122.460885 103 2297ft 240kts
16-Dec-17 20:30 45.548060 -122.364296 105 4586ft 261kts
16-Dec-17 20:31 45.490721 -122.318873 174 6905ft 270kts
16-Dec-17 20:32 45.422478 -122.349520 235 9007ft 286kts
16-Dec-17 20:33 45.386884 -122.456275 252 10282ft 334kts
16-Dec-17 20:34 45.347128 -122.581026 252 12460ft 359kts
16-Dec-17 20:35 45.305740 -122.710479 252 14880ft 375kts
16-Dec-17 20:36 45.261762 -122.847275 252 17260ft 388kts
16-Dec-17 20:37 45.196903 -122.972705 199 18749ft 435kts
16-Dec-17 20:38 45.083931 -123.001209 181 21789ft 409kts
16-Dec-17 20:39 44.973603 -123.026578 182 23301ft 429kts
16-Dec-17 20:40 44.857290 -123.053573 187 23912ft 467kts
16-Dec-17 20:41 44.731434 -123.082641 193 25607ft 474kts
16-Dec-17 20:42 44.600799 -123.112680 193 27026ft 486kts
16-Dec-17 20:43 44.466794 -123.136400 180 28381ft 500kts
16-Dec-17 20:44 44.329411 -123.129583 181 29993ft 499kts
16-Dec-17 20:45 44.191501 -123.124657 181 31378ft 500kts
16-Dec-17 20:46 44.053029 -123.119713 181 32633ft 500kts
16-Dec-17 20:47 43.915165 -123.114818 182 33729ft 501kts
16-Dec-17 20:48 43.780208 -123.110015 182 34627ft 500kts
16-Dec-17 20:49 43.642010 -123.105156 182 35381ft 496kts
16-Dec-17 20:50 43.506272 -123.100393 182 35341ft 490kts
16-Dec-17 20:51 43.370380 -123.095659 182 35350ft 492kts
16-Dec-17 20:52 43.234624 -123.090940 182 35348ft 491kts
16-Dec-17 20:53 43.099298 -123.086261 182 35348ft 491kts
16-Dec-17 20:54 42.963170 -123.081574 182 35348ft 491kts
16-Dec-17 20:55 42.829951 -123.076987 182 35342ft 490kts
16-Dec-17 20:56 42.693666 -123.072339 182 35248ft 492kts
16-Dec-17 20:57 42.557776 -123.067718 182 35257ft 491kts
16-Dec-17 20:58 42.421887 -123.063609 182 35298ft 492kts
16-Dec-17 20:59 42.285738 -123.059301 182 35293ft 492kts
16-Dec-17 21:00 42.149252 -123.054914 182 35295ft 492kts
16-Dec-17 21:01 42.013120 -123.050521 182 35294ft 493kts
16-Dec-17 21:02 41.878391 -123.046180 182 35242ft 494kts
16-Dec-17 21:03 41.746003 -123.041924 182 35266ft 494kts
16-Dec-17 21:04 41.609103 -123.037549 182 35239ft 494kts
16-Dec-17 21:05 41.475106 -123.033290 182 35241ft 494kts
16-Dec-17 21:06 41.339500 -123.029001 182 35206ft 495kts
16-Dec-17 21:07 41.202733 -123.025123 182 35185ft 494kts
16-Dec-17 21:08 41.066036 -123.020955 182 35186ft 495kts
16-Dec-17 21:09 40.928992 -123.016798 182 35186ft 495kts
16-Dec-17 21:10 40.799663 -123.012879 182 35185ft 495kts
16-Dec-17 21:11 40.662821 -123.008764 182 35187ft 495kts
16-Dec-17 21:12 40.527545 -123.004713 182 35186ft 495kts
16-Dec-17 21:13 40.391551 -123.000655 182 35186ft 495kts
16-Dec-17 21:14 40.255656 -122.996620 182 35186ft 495kts
16-Dec-17 21:15 40.118719 -122.992571 181 35139ft 497kts
16-Dec-17 21:16 39.981860 -122.988534 181 35131ft 497kts
16-Dec-17 21:17 39.849127 -122.984633 181 35104ft 498kts
16-Dec-17 21:18 39.713154 -122.980648 181 35136ft 500kts
16-Dec-17 21:19 39.575279 -122.976609 181 35130ft 500kts
16-Dec-17 21:20 39.438567 -122.972643 181 35104ft 499kts
16-Dec-17 21:21 39.300774 -122.968664 181 35105ft 500kts
16-Dec-17 21:22 39.161963 -122.964666 181 35119ft 502kts
16-Dec-17 21:23 39.023785 -122.961802 182 35103ft 499kts
16-Dec-17 21:24 38.889275 -122.959242 181 34562ft 501kts
16-Dec-17 21:25 38.756101 -122.923968 166 32835ft 504kts
16-Dec-17 21:26 38.624702 -122.884901 165 30143ft 502kts
16-Dec-17 21:27 38.489471 -122.845133 166 26867ft 503kts
16-Dec-17 21:28 38.358415 -122.806614 166 24298ft 474kts
16-Dec-17 21:29 38.235850 -122.770692 165 22280ft 452kts
16-Dec-17 21:30 38.115158 -122.735665 165 19960ft 443kts
16-Dec-17 21:31 37.997231 -122.701419 165 17587ft 434kts
16-Dec-17 21:32 37.887062 -122.661968 146 15436ft 418kts
16-Dec-17 21:33 37.805844 -122.574168 148 14385ft 357kts
16-Dec-17 21:34 37.736443 -122.500498 147 13252ft 298kts
16-Dec-17 21:35 37.681850 -122.442519 141 12324ft 245kts
16-Dec-17 21:36 37.630384 -122.387903 133 9922ft 248kts
16-Dec-17 21:37 37.566239 -122.344271 150 7233ft 292kts
16-Dec-17 21:38 37.498678 -122.304178 154 6076ft 270kts
16-Dec-17 21:39 37.432240 -122.264812 149 4639ft 263kts
16-Dec-17 21:40 37.425539 -122.196512 44 4018ft 225kts
16-Dec-17 21:41 37.461388 -122.161282 5 4025ft 206kts
16-Dec-17 21:42 37.508193 -122.177422 339 3683ft 196kts
16-Dec-17 21:43 37.549658 -122.218918 309 2535ft 186kts
16-Dec-17 21:44 37.574039 -122.268856 297 1637ft 143kts
16-Dec-17 21:45 37.592369 -122.312725 298 794ft 140kts
16-Dec-17 21:46 37.609398 -122.353112 305 187ft 129kts
16-Dec-17 21:47 37.621539 -122.381715 299 20ft 41kts
16-Dec-17 21:48 37.622056 -122.385874 247 20ft 6kts
16-Dec-17 21:49 37.621121 -122.387139 183 20ft 1kts
16-Dec-17 21:50 37.621086 -122.387141 183 20ft 0kts
16-Dec-17 21:51 37.621086 -122.387141 183 20ft 0kts

Navigation Log

Ident Type
1. KPDX Airport
2. RIVRR Fix
3. COSUG Fix
4. BISLE Fix
5. MINNE Fix
6. FAMUK Fix
7. FAMUK Navaid
8. FRFLY Navaid
9. FINER Navaid
10. FOWND Navaid
11. MLBEC Fix
12. JONNE Fix
13. BGGLO Fix
14. LOZIT Fix
15. BDEGA Fix
16. CORKK Fix
17. BRIXX Fix
18. KSFO Airport